Ithomi — V7UZ9 — position and weather

sailwx.info

Track history (hours):
 
Tides and Currents Weather Stations Pressure Air Temp Water Temp Dewpoint Dewpoint Depression Visibility Wind Speed Wind Dir Waves Ship Positions

Ithomi

Last reported at 2015-Mar-28 06:17 UTC. Time now 2015-Mar-31 15:33 UTC.
Position N 01°55' E 102°19'.

Length 189 m; draft 12.5 m.

Type: Ship (hazmat cat B). MMSI: 538004069.

Date/timePositionNaut miles runAvg speedWind from/ knotsBaromVisibWave heightAir tempDewpointWater temp
2015-Mar-28 06:17N 01°55' E 102°19'911.2
2015-Mar-28 05:30N 01°52' E 102°27'1111.4
2015-Mar-28 04:32N 01°47' E 102°37'1211.8
2015-Mar-28 03:29N 01°42' E 102°48'7011.1
2015-Mar-27 21:11N 01°12' E 103°52'711.5
2015-Mar-27 20:33N 01°15' E 103°58'  
2015-Mar-20 23:31N 01°15' E 104°07'1110.9
2015-Mar-20 22:33N 01°15' E 103°57'2 2.2
2015-Mar-20 21:31N 01°17' E 103°55'0 0.1
2015-Mar-20 20:25N 01°17' E 103°56'0 0.1
2015-Mar-20 19:22N 01°17' E 103°56'0 0.1
2015-Mar-20 18:25N 01°17' E 103°55'0 0.1
2015-Mar-20 17:25N 01°17' E 103°55'0 0.0
2015-Mar-20 16:31N 01°17' E 103°55'0 0.0
2015-Mar-20 15:31N 01°17' E 103°55'0 0.0
2015-Mar-20 13:31N 01°17' E 103°55'0 0.0
2015-Mar-20 12:25N 01°17' E 103°55'0 0.0
2015-Mar-20 11:25N 01°17' E 103°55'0 0.1
2015-Mar-20 10:31N 01°17' E 103°55'1 1.5
2015-Mar-20 09:33N 01°17' E 103°57'4 4.0
2015-Mar-20 08:33N 01°16' E 104°01'1410.1
2015-Mar-20 07:12N 01°17' E 104°14'3 4.5
2015-Mar-20 06:32N 01°14' E 104°15'6 1.5
2015-Mar-20 02:27N 01°15' E 104°09'9 9.4
2015-Mar-20 01:32N 01°14' E 104°01'8 8.1
2015-Mar-20 00:33N 01°12' E 103°53'7 7.0
2015-Mar-19 23:30N 01°08' E 103°47'  
Track history (hours):
 
Tides and Currents Weather Stations Pressure Air Temp Water Temp Dewpoint Dewpoint Depression Visibility Wind Speed Wind Dir Waves Ship Positions

Ithomi

Last reported at 2015-Mar-28 06:17 UTC. Time now 2015-Mar-31 15:33 UTC.
Position N 01°55' E 102°19'.

Length 189 m; draft 12.5 m.

Type: Ship (hazmat cat B). MMSI: 538004069.

Date/timePositionNaut miles runAvg speedWind from/ knotsBaromVisibWave heightAir tempDewpointWater temp
2015-Mar-28 06:17N 01°55' E 102°19'911.2
2015-Mar-28 05:30N 01°52' E 102°27'1111.4
2015-Mar-28 04:32N 01°47' E 102°37'1211.8
2015-Mar-28 03:29N 01°42' E 102°48'7011.1
2015-Mar-27 21:11N 01°12' E 103°52'711.5
2015-Mar-27 20:33N 01°15' E 103°58'  
2015-Mar-20 23:31N 01°15' E 104°07'1110.9
2015-Mar-20 22:33N 01°15' E 103°57'2 2.2
2015-Mar-20 21:31N 01°17' E 103°55'0 0.1
2015-Mar-20 20:25N 01°17' E 103°56'0 0.1
2015-Mar-20 19:22N 01°17' E 103°56'0 0.1
2015-Mar-20 18:25N 01°17' E 103°55'0 0.1
2015-Mar-20 17:25N 01°17' E 103°55'0 0.0
2015-Mar-20 16:31N 01°17' E 103°55'0 0.0
2015-Mar-20 15:31N 01°17' E 103°55'0 0.0
2015-Mar-20 13:31N 01°17' E 103°55'0 0.0
2015-Mar-20 12:25N 01°17' E 103°55'0 0.0
2015-Mar-20 11:25N 01°17' E 103°55'0 0.1
2015-Mar-20 10:31N 01°17' E 103°55'1 1.5
2015-Mar-20 09:33N 01°17' E 103°57'4 4.0
2015-Mar-20 08:33N 01°16' E 104°01'1410.1
2015-Mar-20 07:12N 01°17' E 104°14'3 4.5
2015-Mar-20 06:32N 01°14' E 104°15'6 1.5
2015-Mar-20 02:27N 01°15' E 104°09'9 9.4
2015-Mar-20 01:32N 01°14' E 104°01'8 8.1
2015-Mar-20 00:33N 01°12' E 103°53'7 7.0
2015-Mar-19 23:30N 01°08' E 103°47'  

Dump ship's entire track history